sensor_id;sensor_type;location;lat;lon;timestamp;pressure;altitude;pressure_sealevel;temperature;humidity
23172;BME280;11754;42.664;23.594;2022-09-13T00:00:33;95231.72;;;14.03;68.36
23172;BME280;11754;42.664;23.594;2022-09-13T00:02:58;95241.16;;;14.12;68.20
23172;BME280;11754;42.664;23.594;2022-09-13T00:05:24;95231.38;;;14.13;68.50
23172;BME280;11754;42.664;23.594;2022-09-13T00:07:49;95231.91;;;14.02;68.81
23172;BME280;11754;42.664;23.594;2022-09-13T00:10:15;95232.94;;;14.01;68.96
23172;BME280;11754;42.664;23.594;2022-09-13T00:12:41;95229.63;;;13.92;68.99
23172;BME280;11754;42.664;23.594;2022-09-13T00:15:06;95240.63;;;13.95;69.13
23172;BME280;11754;42.664;23.594;2022-09-13T00:17:32;95232.81;;;13.87;69.21
23172;BME280;11754;42.664;23.594;2022-09-13T00:19:58;95233.69;;;13.94;69.25
23172;BME280;11754;42.664;23.594;2022-09-13T00:22:23;95226.72;;;13.87;69.55
23172;BME280;11754;42.664;23.594;2022-09-13T00:24:49;95234.16;;;13.77;69.57
23172;BME280;11754;42.664;23.594;2022-09-13T00:27:14;95216.88;;;13.81;69.40
23172;BME280;11754;42.664;23.594;2022-09-13T00:29:39;95223.03;;;13.88;69.46
23172;BME280;11754;42.664;23.594;2022-09-13T00:32:05;95232.38;;;13.84;69.58
23172;BME280;11754;42.664;23.594;2022-09-13T00:34:30;95207.56;;;13.63;70.07
23172;BME280;11754;42.664;23.594;2022-09-13T00:36:56;95230.41;;;13.64;70.37
23172;BME280;11754;42.664;23.594;2022-09-13T00:39:21;95209.28;;;13.50;70.69
23172;BME280;11754;42.664;23.594;2022-09-13T00:41:47;95214.59;;;13.50;70.98
23172;BME280;11754;42.664;23.594;2022-09-13T00:47:17;95221.91;;;13.48;71.27
23172;BME280;11754;42.664;23.594;2022-09-13T00:49:45;95206.72;;;13.35;71.25
23172;BME280;11754;42.664;23.594;2022-09-13T00:52:15;95213.28;;;13.39;71.52
23172;BME280;11754;42.664;23.594;2022-09-13T00:54:46;95219.19;;;13.41;71.47
23172;BME280;11754;42.664;23.594;2022-09-13T00:57:14;95216.16;;;13.44;71.33
23172;BME280;11754;42.664;23.594;2022-09-13T00:59:49;95220.31;;;13.53;71.10
23172;BME280;11754;42.664;23.594;2022-09-13T01:02:16;95228.38;;;13.66;70.85
23172;BME280;11754;42.664;23.594;2022-09-13T01:04:42;95213.78;;;13.77;70.47
23172;BME280;11754;42.664;23.594;2022-09-13T01:07:10;95214.91;;;13.89;70.65
23172;BME280;11754;42.664;23.594;2022-09-13T01:09:40;95206.38;;;13.94;70.36
23172;BME280;11754;42.664;23.594;2022-09-13T01:12:40;95211.38;;;14.10;70.00
23172;BME280;11754;42.664;23.594;2022-09-13T01:15:08;95195.66;;;14.09;69.95
23172;BME280;11754;42.664;23.594;2022-09-13T01:17:35;95205.72;;;14.20;69.61
23172;BME280;11754;42.664;23.594;2022-09-13T01:20:02;95202.88;;;14.22;69.39
23172;BME280;11754;42.664;23.594;2022-09-13T01:27:45;95204.13;;;14.26;69.52
23172;BME280;11754;42.664;23.594;2022-09-13T01:30:33;95197.78;;;14.27;69.48
23172;BME280;11754;42.664;23.594;2022-09-13T01:36:22;95198.47;;;14.42;68.99
23172;BME280;11754;42.664;23.594;2022-09-13T01:41:48;95201.31;;;14.69;68.42
23172;BME280;11754;42.664;23.594;2022-09-13T01:44:46;95193.78;;;14.79;68.30
23172;BME280;11754;42.664;23.594;2022-09-13T01:47:21;95199.09;;;14.79;67.92
23172;BME280;11754;42.664;23.594;2022-09-13T01:52:30;95199.09;;;14.85;67.66
23172;BME280;11754;42.664;23.594;2022-09-13T01:57:47;95173.53;;;14.71;67.01
23172;BME280;11754;42.664;23.594;2022-09-13T02:00:16;95181.91;;;14.68;67.16
23172;BME280;11754;42.664;23.594;2022-09-13T02:03:03;95186.78;;;14.64;66.63
23172;BME280;11754;42.664;23.594;2022-09-13T02:05:46;95186.75;;;14.58;66.93
23172;BME280;11754;42.664;23.594;2022-09-13T02:08:27;95186.72;;;14.51;67.02
23172;BME280;11754;42.664;23.594;2022-09-13T02:11:02;95185.00;;;14.37;67.45
23172;BME280;11754;42.664;23.594;2022-09-13T02:13:35;95189.66;;;14.28;67.72
23172;BME280;11754;42.664;23.594;2022-09-13T02:16:10;95188.56;;;14.16;68.62
23172;BME280;11754;42.664;23.594;2022-09-13T02:18:40;95182.34;;;14.02;68.54
23172;BME280;11754;42.664;23.594;2022-09-13T02:21:13;95185.19;;;14.01;69.25
23172;BME280;11754;42.664;23.594;2022-09-13T02:23:59;95180.06;;;13.99;69.12
23172;BME280;11754;42.664;23.594;2022-09-13T02:26:26;95186.41;;;13.98;69.22
23172;BME280;11754;42.664;23.594;2022-09-13T02:28:55;95183.69;;;13.85;69.73
23172;BME280;11754;42.664;23.594;2022-09-13T02:31:28;95184.13;;;13.95;68.98
23172;BME280;11754;42.664;23.594;2022-09-13T02:34:00;95193.75;;;13.96;69.27
23172;BME280;11754;42.664;23.594;2022-09-13T02:36:34;95184.34;;;13.93;69.55
23172;BME280;11754;42.664;23.594;2022-09-13T02:39:05;95190.06;;;13.97;69.28
23172;BME280;11754;42.664;23.594;2022-09-13T02:50:02;95195.66;;;13.81;69.43
23172;BME280;11754;42.664;23.594;2022-09-13T02:58:15;95186.88;;;13.52;70.28
23172;BME280;11754;42.664;23.594;2022-09-13T03:00:44;95201.13;;;13.51;70.38
23172;BME280;11754;42.664;23.594;2022-09-13T03:03:11;95185.97;;;13.38;70.67
23172;BME280;11754;42.664;23.594;2022-09-13T03:05:38;95190.41;;;13.38;70.50
23172;BME280;11754;42.664;23.594;2022-09-13T03:08:04;95181.56;;;13.24;71.03
23172;BME280;11754;42.664;23.594;2022-09-13T03:10:47;95188.22;;;13.20;70.97
23172;BME280;11754;42.664;23.594;2022-09-13T03:18:44;95204.03;;;13.13;71.09
23172;BME280;11754;42.664;23.594;2022-09-13T03:35:28;95203.25;;;12.98;71.08
23172;BME280;11754;42.664;23.594;2022-09-13T03:38:08;95202.19;;;12.92;70.70
23172;BME280;11754;42.664;23.594;2022-09-13T03:40:46;95204.81;;;12.92;70.86
23172;BME280;11754;42.664;23.594;2022-09-13T03:43:24;95211.44;;;12.82;71.17
23172;BME280;11754;42.664;23.594;2022-09-13T03:45:55;95199.94;;;12.74;71.10
23172;BME280;11754;42.664;23.594;2022-09-13T03:48:23;95203.59;;;12.73;71.07
23172;BME280;11754;42.664;23.594;2022-09-13T03:50:50;95207.63;;;12.69;71.25
23172;BME280;11754;42.664;23.594;2022-09-13T03:53:22;95200.16;;;12.58;71.06
23172;BME280;11754;42.664;23.594;2022-09-13T03:55:49;95208.72;;;12.60;71.45
23172;BME280;11754;42.664;23.594;2022-09-13T03:58:19;95207.47;;;12.56;71.11
23172;BME280;11754;42.664;23.594;2022-09-13T04:00:45;95210.72;;;12.58;71.32
23172;BME280;11754;42.664;23.594;2022-09-13T04:03:11;95213.19;;;12.60;71.28
23172;BME280;11754;42.664;23.594;2022-09-13T04:05:37;95212.75;;;12.56;71.33
23172;BME280;11754;42.664;23.594;2022-09-13T04:08:04;95215.75;;;12.53;71.39
23172;BME280;11754;42.664;23.594;2022-09-13T04:10:30;95215.50;;;12.48;71.13
23172;BME280;11754;42.664;23.594;2022-09-13T04:12:56;95221.53;;;12.42;71.18
23172;BME280;11754;42.664;23.594;2022-09-13T04:15:22;95218.78;;;12.35;71.44
23172;BME280;11754;42.664;23.594;2022-09-13T04:17:48;95218.22;;;12.40;71.54
23172;BME280;11754;42.664;23.594;2022-09-13T04:20:14;95213.84;;;12.32;71.46
23172;BME280;11754;42.664;23.594;2022-09-13T04:22:39;95213.31;;;12.37;71.64
23172;BME280;11754;42.664;23.594;2022-09-13T04:25:05;95218.06;;;12.41;71.49
23172;BME280;11754;42.664;23.594;2022-09-13T04:27:31;95215.88;;;12.45;71.33
23172;BME280;11754;42.664;23.594;2022-09-13T04:29:56;95217.13;;;12.49;71.42
23172;BME280;11754;42.664;23.594;2022-09-13T04:32:21;95214.75;;;12.54;70.83
23172;BME280;11754;42.664;23.594;2022-09-13T04:34:47;95222.53;;;12.56;70.42
23172;BME280;11754;42.664;23.594;2022-09-13T04:37:12;95234.66;;;12.50;70.78
23172;BME280;11754;42.664;23.594;2022-09-13T04:39:37;95237.94;;;12.52;70.76
23172;BME280;11754;42.664;23.594;2022-09-13T04:42:03;95236.47;;;12.49;70.63
23172;BME280;11754;42.664;23.594;2022-09-13T04:44:29;95240.38;;;12.54;70.62
23172;BME280;11754;42.664;23.594;2022-09-13T04:46:54;95241.19;;;12.54;71.16
23172;BME280;11754;42.664;23.594;2022-09-13T04:49:20;95226.09;;;12.48;71.01
23172;BME280;11754;42.664;23.594;2022-09-13T04:51:46;95238.47;;;12.62;71.00
23172;BME280;11754;42.664;23.594;2022-09-13T04:54:12;95238.09;;;12.65;71.01
23172;BME280;11754;42.664;23.594;2022-09-13T04:56:37;95245.41;;;12.63;71.30
23172;BME280;11754;42.664;23.594;2022-09-13T04:59:03;95241.03;;;12.70;70.89
23172;BME280;11754;42.664;23.594;2022-09-13T05:01:28;95234.47;;;12.66;70.91
23172;BME280;11754;42.664;23.594;2022-09-13T05:03:54;95247.22;;;12.78;71.02
23172;BME280;11754;42.664;23.594;2022-09-13T05:06:20;95254.03;;;12.87;70.91
23172;BME280;11754;42.664;23.594;2022-09-13T05:23:57;95246.75;;;13.46;70.23
23172;BME280;11754;42.664;23.594;2022-09-13T05:26:25;95261.56;;;13.62;70.33
23172;BME280;11754;42.664;23.594;2022-09-13T05:28:52;95256.38;;;13.76;69.88
23172;BME280;11754;42.664;23.594;2022-09-13T05:31:23;95252.41;;;13.86;69.62
23172;BME280;11754;42.664;23.594;2022-09-13T05:34:23;95263.16;;;14.06;69.67
23172;BME280;11754;42.664;23.594;2022-09-13T05:36:42;95249.75;;;14.14;69.52
23172;BME280;11754;42.664;23.594;2022-09-13T05:39:13;95255.72;;;14.23;69.92
23172;BME280;11754;42.664;23.594;2022-09-13T05:41:39;95256.41;;;14.32;69.94
23172;BME280;11754;42.664;23.594;2022-09-13T05:44:05;95252.13;;;14.37;70.61
23172;BME280;11754;42.664;23.594;2022-09-13T05:46:31;95240.75;;;14.43;70.50
23172;BME280;11754;42.664;23.594;2022-09-13T05:48:57;95249.66;;;14.57;71.01
23172;BME280;11754;42.664;23.594;2022-09-13T05:51:25;95246.00;;;14.65;70.58
23172;BME280;11754;42.664;23.594;2022-09-13T05:53:52;95247.97;;;14.56;71.11
23172;BME280;11754;42.664;23.594;2022-09-13T05:56:27;95243.09;;;14.60;71.90
23172;BME280;11754;42.664;23.594;2022-09-13T05:58:53;95247.66;;;14.73;71.95
23172;BME280;11754;42.664;23.594;2022-09-13T06:01:22;95246.94;;;14.92;71.32
23172;BME280;11754;42.664;23.594;2022-09-13T06:03:49;95239.22;;;15.04;70.49
23172;BME280;11754;42.664;23.594;2022-09-13T06:06:15;95242.91;;;15.09;69.97
23172;BME280;11754;42.664;23.594;2022-09-13T06:08:41;95233.50;;;15.13;69.81
23172;BME280;11754;42.664;23.594;2022-09-13T06:11:09;95233.31;;;15.22;69.60
23172;BME280;11754;42.664;23.594;2022-09-13T06:13:36;95219.69;;;15.38;69.45
23172;BME280;11754;42.664;23.594;2022-09-13T06:16:04;95235.81;;;15.43;68.81
23172;BME280;11754;42.664;23.594;2022-09-13T06:18:30;95236.06;;;15.48;69.07
23172;BME280;11754;42.664;23.594;2022-09-13T06:21:12;95243.03;;;15.76;68.65
23172;BME280;11754;42.664;23.594;2022-09-13T06:23:46;95246.53;;;15.96;68.23
23172;BME280;11754;42.664;23.594;2022-09-13T06:26:14;95229.53;;;16.17;67.35
23172;BME280;11754;42.664;23.594;2022-09-13T06:28:40;95234.00;;;16.43;66.77
23172;BME280;11754;42.664;23.594;2022-09-13T06:31:08;95240.91;;;16.57;65.88
23172;BME280;11754;42.664;23.594;2022-09-13T06:33:35;95242.13;;;16.75;65.48
23172;BME280;11754;42.664;23.594;2022-09-13T06:36:05;95240.81;;;16.91;65.14
23172;BME280;11754;42.664;23.594;2022-09-13T06:38:32;95250.63;;;17.03;64.27
23172;BME280;11754;42.664;23.594;2022-09-13T06:41:11;95247.28;;;17.15;64.50
23172;BME280;11754;42.664;23.594;2022-09-13T06:43:38;95252.47;;;17.41;63.32
23172;BME280;11754;42.664;23.594;2022-09-13T06:46:16;95241.31;;;17.58;62.72
23172;BME280;11754;42.664;23.594;2022-09-13T06:48:43;95257.53;;;17.88;61.70
23172;BME280;11754;42.664;23.594;2022-09-13T06:51:17;95258.63;;;18.05;61.13
23172;BME280;11754;42.664;23.594;2022-09-13T06:53:45;95264.50;;;18.14;60.56
23172;BME280;11754;42.664;23.594;2022-09-13T06:56:13;95262.34;;;18.29;59.95
23172;BME280;11754;42.664;23.594;2022-09-13T06:58:41;95266.78;;;18.35;59.63
23172;BME280;11754;42.664;23.594;2022-09-13T07:01:19;95268.84;;;18.58;58.92
23172;BME280;11754;42.664;23.594;2022-09-13T07:03:53;95262.97;;;18.68;58.61
23172;BME280;11754;42.664;23.594;2022-09-13T07:06:21;95272.63;;;18.51;58.22
23172;BME280;11754;42.664;23.594;2022-09-13T07:08:48;95267.13;;;18.64;58.18
23172;BME280;11754;42.664;23.594;2022-09-13T07:11:16;95235.38;;;18.56;57.54
23172;BME280;11754;42.664;23.594;2022-09-13T07:13:55;95256.47;;;18.82;57.10
23172;BME280;11754;42.664;23.594;2022-09-13T07:16:23;95249.56;;;19.11;56.41
23172;BME280;11754;42.664;23.594;2022-09-13T07:18:59;95262.22;;;19.34;55.81
23172;BME280;11754;42.664;23.594;2022-09-13T07:21:25;95259.19;;;19.61;54.46
23172;BME280;11754;42.664;23.594;2022-09-13T07:23:52;95256.47;;;19.79;53.82
23172;BME280;11754;42.664;23.594;2022-09-13T07:26:18;95251.97;;;19.91;53.18
23172;BME280;11754;42.664;23.594;2022-09-13T07:28:45;95244.66;;;20.10;52.25
23172;BME280;11754;42.664;23.594;2022-09-13T07:31:15;95262.28;;;20.42;51.74
23172;BME280;11754;42.664;23.594;2022-09-13T07:33:42;95244.97;;;20.56;51.18
23172;BME280;11754;42.664;23.594;2022-09-13T07:36:08;95259.00;;;20.86;50.37
23172;BME280;11754;42.664;23.594;2022-09-13T07:38:37;95265.28;;;21.04;48.91
23172;BME280;11754;42.664;23.594;2022-09-13T07:41:04;95259.59;;;20.88;48.12
23172;BME280;11754;42.664;23.594;2022-09-13T07:43:33;95258.75;;;21.00;48.35
23172;BME280;11754;42.664;23.594;2022-09-13T07:46:04;95262.19;;;21.35;48.08
23172;BME280;11754;42.664;23.594;2022-09-13T07:48:31;95260.53;;;21.34;44.28
23172;BME280;11754;42.664;23.594;2022-09-13T07:53:27;95272.94;;;21.64;44.60
23172;BME280;11754;42.664;23.594;2022-09-13T07:55:53;95272.41;;;21.67;45.27
23172;BME280;11754;42.664;23.594;2022-09-13T07:58:18;95264.34;;;21.50;44.07
23172;BME280;11754;42.664;23.594;2022-09-13T08:00:44;95262.47;;;21.79;43.97
23172;BME280;11754;42.664;23.594;2022-09-13T08:03:10;95271.59;;;22.12;41.81
23172;BME280;11754;42.664;23.594;2022-09-13T08:05:42;95270.41;;;22.53;41.87
23172;BME280;11754;42.664;23.594;2022-09-13T08:08:08;95262.38;;;22.75;41.88
23172;BME280;11754;42.664;23.594;2022-09-13T08:10:33;95261.81;;;22.90;40.76
23172;BME280;11754;42.664;23.594;2022-09-13T08:12:59;95259.28;;;23.22;40.63
23172;BME280;11754;42.664;23.594;2022-09-13T08:15:26;95259.69;;;23.80;39.18
23172;BME280;11754;42.664;23.594;2022-09-13T08:17:51;95255.00;;;23.70;36.77
23172;BME280;11754;42.664;23.594;2022-09-13T08:20:19;95259.44;;;23.87;37.13
23172;BME280;11754;42.664;23.594;2022-09-13T08:22:44;95257.44;;;24.04;36.84
23172;BME280;11754;42.664;23.594;2022-09-13T08:25:09;95250.53;;;24.13;35.91
23172;BME280;11754;42.664;23.594;2022-09-13T08:27:35;95249.72;;;24.45;35.81
23172;BME280;11754;42.664;23.594;2022-09-13T08:30:01;95252.25;;;25.04;35.07
23172;BME280;11754;42.664;23.594;2022-09-13T08:32:26;95256.66;;;25.21;34.59
23172;BME280;11754;42.664;23.594;2022-09-13T08:34:52;95239.66;;;25.15;34.27
23172;BME280;11754;42.664;23.594;2022-09-13T08:37:17;95257.88;;;24.50;35.54
23172;BME280;11754;42.664;23.594;2022-09-13T08:39:43;95261.06;;;24.47;35.78
23172;BME280;11754;42.664;23.594;2022-09-13T08:42:21;95256.44;;;24.80;34.15
23172;BME280;11754;42.664;23.594;2022-09-13T08:44:53;95253.72;;;24.75;33.43
23172;BME280;11754;42.664;23.594;2022-09-13T08:50:18;95244.66;;;24.96;33.91
23172;BME280;11754;42.664;23.594;2022-09-13T08:52:52;95242.09;;;25.22;34.14
23172;BME280;11754;42.664;23.594;2022-09-13T09:00:34;95248.13;;;25.49;32.29
23172;BME280;11754;42.664;23.594;2022-09-13T09:05:48;95232.50;;;24.99;32.79
23172;BME280;11754;42.664;23.594;2022-09-13T09:10:56;95240.91;;;25.02;32.50
23172;BME280;11754;42.664;23.594;2022-09-13T09:15:52;95255.19;;;24.98;33.26
23172;BME280;11754;42.664;23.594;2022-09-13T09:18:23;95250.72;;;25.24;32.73
23172;BME280;11754;42.664;23.594;2022-09-13T09:20:52;95247.47;;;26.05;31.94
23172;BME280;11754;42.664;23.594;2022-09-13T09:23:19;95235.72;;;27.17;30.67
23172;BME280;11754;42.664;23.594;2022-09-13T09:25:46;95241.56;;;28.38;28.42
23172;BME280;11754;42.664;23.594;2022-09-13T09:28:14;95226.22;;;29.11;26.67
23172;BME280;11754;42.664;23.594;2022-09-13T09:30:59;95226.25;;;29.06;25.23
23172;BME280;11754;42.664;23.594;2022-09-13T09:33:56;95218.56;;;30.64;24.28
23172;BME280;11754;42.664;23.594;2022-09-13T09:36:44;95204.03;;;30.22;24.66
23172;BME280;11754;42.664;23.594;2022-09-13T09:39:13;95205.31;;;29.92;24.39
23172;BME280;11754;42.664;23.594;2022-09-13T09:41:42;95216.50;;;29.90;24.44
23172;BME280;11754;42.664;23.594;2022-09-13T09:44:21;95224.41;;;29.68;24.60
23172;BME280;11754;42.664;23.594;2022-09-13T09:46:51;95205.09;;;33.04;22.48
23172;BME280;11754;42.664;23.594;2022-09-13T09:49:32;95178.44;;;38.28;17.53
23172;BME280;11754;42.664;23.594;2022-09-13T09:52:21;95181.50;;;39.77;15.22
23172;BME280;11754;42.664;23.594;2022-09-13T09:54:48;95166.25;;;39.32;15.12
23172;BME280;11754;42.664;23.594;2022-09-13T09:57:14;95160.31;;;41.01;14.43
23172;BME280;11754;42.664;23.594;2022-09-13T09:59:40;95162.25;;;43.08;12.63
23172;BME280;11754;42.664;23.594;2022-09-13T10:02:18;95155.34;;;42.54;13.20
23172;BME280;11754;42.664;23.594;2022-09-13T10:04:56;95160.22;;;39.62;15.00
23172;BME280;11754;42.664;23.594;2022-09-13T10:07:28;95166.19;;;38.25;16.31
23172;BME280;11754;42.664;23.594;2022-09-13T10:09:58;95155.34;;;41.37;14.05
23172;BME280;11754;42.664;23.594;2022-09-13T10:12:26;95156.88;;;45.69;11.53
23172;BME280;11754;42.664;23.594;2022-09-13T10:17:30;95152.03;;;47.41;9.47
23172;BME280;11754;42.664;23.594;2022-09-13T10:20:02;95140.53;;;49.03;8.33
23172;BME280;11754;42.664;23.594;2022-09-13T10:22:43;95149.22;;;48.55;8.27
23172;BME280;11754;42.664;23.594;2022-09-13T10:25:25;95135.38;;;50.52;7.98
23172;BME280;11754;42.664;23.594;2022-09-13T10:27:53;95133.41;;;52.42;7.08
23172;BME280;11754;42.664;23.594;2022-09-13T10:30:31;95127.09;;;51.96;6.57
23172;BME280;11754;42.664;23.594;2022-09-13T10:33:00;95127.34;;;50.54;7.78
23172;BME280;11754;42.664;23.594;2022-09-13T10:35:28;95132.50;;;48.17;8.61
23172;BME280;11754;42.664;23.594;2022-09-13T10:37:53;95131.28;;;46.24;9.70
23172;BME280;11754;42.664;23.594;2022-09-13T10:40:30;95114.94;;;46.92;9.08
23172;BME280;11754;42.664;23.594;2022-09-13T10:43:01;95119.09;;;47.22;8.89
23172;BME280;11754;42.664;23.594;2022-09-13T10:45:30;95126.94;;;42.64;11.17
23172;BME280;11754;42.664;23.594;2022-09-13T10:48:14;95125.50;;;41.23;12.48
23172;BME280;11754;42.664;23.594;2022-09-13T10:50:40;95128.09;;;44.29;10.87
23172;BME280;11754;42.664;23.594;2022-09-13T10:53:41;95125.34;;;47.78;8.89
23172;BME280;11754;42.664;23.594;2022-09-13T10:56:20;95102.00;;;50.94;7.65
23172;BME280;11754;42.664;23.594;2022-09-13T10:58:45;95117.03;;;53.17;7.04
23172;BME280;11754;42.664;23.594;2022-09-13T11:02:04;95108.84;;;51.26;7.55
23172;BME280;11754;42.664;23.594;2022-09-13T11:10:22;95110.34;;;43.71;10.89
23172;BME280;11754;42.664;23.594;2022-09-13T11:12:56;95103.16;;;44.61;10.48
23172;BME280;11754;42.664;23.594;2022-09-13T11:15:38;95097.19;;;48.88;8.30
23172;BME280;11754;42.664;23.594;2022-09-13T11:26:42;95079.38;;;43.62;10.85
23172;BME280;11754;42.664;23.594;2022-09-13T11:29:41;95080.38;;;45.98;9.84
23172;BME280;11754;42.664;23.594;2022-09-13T11:40:27;95077.19;;;56.74;5.12
23172;BME280;11754;42.664;23.594;2022-09-13T11:43:16;95076.41;;;57.94;5.07
23172;BME280;11754;42.664;23.594;2022-09-13T11:48:33;95067.31;;;55.45;5.65
23172;BME280;11754;42.664;23.594;2022-09-13T11:51:28;95082.25;;;52.18;6.23
23172;BME280;11754;42.664;23.594;2022-09-13T11:56:37;95068.53;;;56.08;5.41
23172;BME280;11754;42.664;23.594;2022-09-13T12:01:59;95071.06;;;59.87;4.35
23172;BME280;11754;42.664;23.594;2022-09-13T12:04:33;95061.47;;;58.38;4.04
23172;BME280;11754;42.664;23.594;2022-09-13T12:07:06;95058.25;;;58.15;4.51
23172;BME280;11754;42.664;23.594;2022-09-13T12:09:38;95058.13;;;59.86;4.12
23172;BME280;11754;42.664;23.594;2022-09-13T12:12:14;95056.94;;;62.02;3.55
23172;BME280;11754;42.664;23.594;2022-09-13T12:14:58;95042.94;;;62.82;3.11
23172;BME280;11754;42.664;23.594;2022-09-13T12:17:36;95048.81;;;63.88;2.95
23172;BME280;11754;42.664;23.594;2022-09-13T12:20:05;95033.97;;;63.36;2.78
23172;BME280;11754;42.664;23.594;2022-09-13T12:22:36;95043.72;;;64.46;2.71
23172;BME280;11754;42.664;23.594;2022-09-13T12:25:06;95047.19;;;64.39;2.48
23172;BME280;11754;42.664;23.594;2022-09-13T12:27:40;95026.88;;;63.60;2.55
23172;BME280;11754;42.664;23.594;2022-09-13T12:30:23;95034.19;;;61.42;2.79
23172;BME280;11754;42.664;23.594;2022-09-13T12:32:50;95025.47;;;57.46;4.02
23172;BME280;11754;42.664;23.594;2022-09-13T12:35:37;95025.88;;;57.53;4.52
23172;BME280;11754;42.664;23.594;2022-09-13T12:41:10;95022.38;;;55.28;5.14
23172;BME280;11754;42.664;23.594;2022-09-13T12:47:15;95021.72;;;50.97;6.62
23172;BME280;11754;42.664;23.594;2022-09-13T12:52:50;95002.63;;;50.39;7.69
23172;BME280;11754;42.664;23.594;2022-09-13T13:01:05;95005.84;;;52.06;6.87
23172;BME280;11754;42.664;23.594;2022-09-13T13:03:35;95006.91;;;52.38;6.59
23172;BME280;11754;42.664;23.594;2022-09-13T13:06:32;95010.03;;;52.40;6.27
23172;BME280;11754;42.664;23.594;2022-09-13T13:11:45;95013.97;;;49.36;7.33
23172;BME280;11754;42.664;23.594;2022-09-13T13:14:45;94994.69;;;49.61;7.55
23172;BME280;11754;42.664;23.594;2022-09-13T13:17:33;95009.38;;;51.07;6.41
23172;BME280;11754;42.664;23.594;2022-09-13T13:20:00;95007.41;;;48.75;7.54
23172;BME280;11754;42.664;23.594;2022-09-13T13:25:31;95011.50;;;48.44;7.80
23172;BME280;11754;42.664;23.594;2022-09-13T13:27:57;95018.97;;;51.26;6.92
23172;BME280;11754;42.664;23.594;2022-09-13T13:33:23;95018.94;;;54.25;5.59
23172;BME280;11754;42.664;23.594;2022-09-13T13:35:50;95025.69;;;52.28;6.42
23172;BME280;11754;42.664;23.594;2022-09-13T13:43:58;95021.38;;;48.75;7.70
23172;BME280;11754;42.664;23.594;2022-09-13T13:46:31;95010.94;;;49.03;7.65
23172;BME280;11754;42.664;23.594;2022-09-13T13:59:53;95031.50;;;50.19;7.12
23172;BME280;11754;42.664;23.594;2022-09-13T14:02:25;95017.50;;;49.40;7.43
23172;BME280;11754;42.664;23.594;2022-09-13T14:05:05;95023.22;;;48.62;7.65
23172;BME280;11754;42.664;23.594;2022-09-13T14:08:01;95021.88;;;48.70;8.04
23172;BME280;11754;42.664;23.594;2022-09-13T14:19:28;95040.22;;;49.65;7.50
23172;BME280;11754;42.664;23.594;2022-09-13T14:22:05;95037.88;;;49.20;7.63
23172;BME280;11754;42.664;23.594;2022-09-13T14:24:38;95031.47;;;49.20;7.19
23172;BME280;11754;42.664;23.594;2022-09-13T14:27:13;95030.25;;;49.64;7.38
23172;BME280;11754;42.664;23.594;2022-09-13T14:29:43;95042.44;;;50.50;7.53
23172;BME280;11754;42.664;23.594;2022-09-13T14:32:12;95027.84;;;50.91;6.78
23172;BME280;11754;42.664;23.594;2022-09-13T14:34:50;95039.16;;;50.71;6.62
23172;BME280;11754;42.664;23.594;2022-09-13T14:37:18;95034.75;;;49.98;7.26
23172;BME280;11754;42.664;23.594;2022-09-13T14:39:53;95033.75;;;49.68;6.96
23172;BME280;11754;42.664;23.594;2022-09-13T14:42:19;95036.75;;;50.17;7.11
23172;BME280;11754;42.664;23.594;2022-09-13T14:44:45;95039.94;;;49.79;7.21
23172;BME280;11754;42.664;23.594;2022-09-13T14:49:52;95027.97;;;43.93;9.86
23172;BME280;11754;42.664;23.594;2022-09-13T14:55:27;95035.19;;;39.97;12.16
23172;BME280;11754;42.664;23.594;2022-09-13T14:57:58;95053.59;;;38.83;13.50
23172;BME280;11754;42.664;23.594;2022-09-13T15:00:27;95053.16;;;38.81;13.73
23172;BME280;11754;42.664;23.594;2022-09-13T15:03:13;95052.00;;;39.33;13.32
23172;BME280;11754;42.664;23.594;2022-09-13T15:05:40;95058.84;;;39.59;13.46
23172;BME280;11754;42.664;23.594;2022-09-13T15:08:46;95062.69;;;40.55;12.97
23172;BME280;11754;42.664;23.594;2022-09-13T15:11:28;95057.00;;;40.67;12.87
23172;BME280;11754;42.664;23.594;2022-09-13T15:16:47;95067.81;;;39.72;12.93
23172;BME280;11754;42.664;23.594;2022-09-13T15:19:26;95067.44;;;39.03;13.87
23172;BME280;11754;42.664;23.594;2022-09-13T15:22:00;95067.81;;;38.10;14.15
23172;BME280;11754;42.664;23.594;2022-09-13T15:24:30;95075.50;;;35.62;15.59
23172;BME280;11754;42.664;23.594;2022-09-13T15:30:03;95074.00;;;34.08;17.09
23172;BME280;11754;42.664;23.594;2022-09-13T15:32:42;95075.06;;;32.94;18.44
23172;BME280;11754;42.664;23.594;2022-09-13T15:35:17;95070.47;;;32.33;19.22
23172;BME280;11754;42.664;23.594;2022-09-13T15:37:46;95079.31;;;31.12;20.17
23172;BME280;11754;42.664;23.594;2022-09-13T15:40:20;95093.47;;;29.66;21.69
23172;BME280;11754;42.664;23.594;2022-09-13T15:42:51;95096.31;;;29.18;22.15
23172;BME280;11754;42.664;23.594;2022-09-13T15:45:18;95097.25;;;28.84;22.77
23172;BME280;11754;42.664;23.594;2022-09-13T15:47:46;95092.50;;;28.52;23.03
23172;BME280;11754;42.664;23.594;2022-09-13T15:50:26;95100.88;;;27.97;23.66
23172;BME280;11754;42.664;23.594;2022-09-13T15:52:53;95100.47;;;27.46;24.26
23172;BME280;11754;42.664;23.594;2022-09-13T15:55:20;95113.66;;;27.08;24.61
23172;BME280;11754;42.664;23.594;2022-09-13T15:57:46;95111.69;;;26.64;25.12
23172;BME280;11754;42.664;23.594;2022-09-13T16:00:26;95106.63;;;26.22;25.91
23172;BME280;11754;42.664;23.594;2022-09-13T16:02:52;95123.19;;;25.90;26.41
23172;BME280;11754;42.664;23.594;2022-09-13T16:05:18;95123.38;;;25.52;26.87
23172;BME280;11754;42.664;23.594;2022-09-13T16:07:44;95127.13;;;25.31;27.72
23172;BME280;11754;42.664;23.594;2022-09-13T16:10:16;95125.69;;;24.92;28.11
23172;BME280;11754;42.664;23.594;2022-09-13T16:12:42;95128.28;;;24.72;28.33
23172;BME280;11754;42.664;23.594;2022-09-13T16:15:08;95122.97;;;24.35;28.75